createdAt,value
2018-07-20T00:00:21.818Z,0.00
2018-07-20T00:01:21.841Z,0.00
2018-07-20T00:02:21.866Z,0.00
2018-07-20T00:03:21.880Z,0.00
2018-07-20T00:04:21.904Z,0.00
2018-07-20T00:05:21.926Z,0.00
2018-07-20T00:06:21.945Z,0.00
2018-07-20T00:07:21.967Z,0.00
2018-07-20T00:08:22.007Z,0.00
2018-07-20T00:09:22.012Z,0.00
2018-07-20T00:10:22.031Z,0.00
2018-07-20T00:11:22.050Z,0.00
2018-07-20T00:12:22.074Z,0.00
2018-07-20T00:13:22.154Z,0.00
2018-07-20T00:14:22.113Z,0.00
2018-07-20T00:15:22.133Z,0.00
2018-07-20T00:16:22.156Z,0.00
2018-07-20T00:17:22.196Z,0.00
2018-07-20T00:18:22.195Z,0.00
2018-07-20T00:19:22.218Z,0.00
2018-07-20T00:20:22.237Z,0.00
2018-07-20T00:21:22.258Z,0.00
2018-07-20T00:22:22.281Z,0.00
2018-07-20T00:23:22.300Z,0.00
2018-07-20T00:24:22.324Z,0.00
2018-07-20T00:25:22.340Z,0.00
2018-07-20T00:26:22.361Z,0.00
2018-07-20T00:27:22.432Z,0.00
2018-07-20T00:28:22.403Z,0.00
2018-07-20T00:29:22.427Z,0.00
2018-07-20T00:30:22.511Z,0.00
2018-07-20T00:31:22.467Z,0.00
2018-07-20T00:32:22.488Z,0.00
2018-07-20T00:33:22.510Z,0.00
2018-07-20T00:34:22.532Z,0.00
2018-07-20T00:35:22.549Z,0.00
2018-07-20T00:36:22.572Z,0.00
2018-07-20T00:37:22.598Z,0.00
2018-07-20T00:38:22.614Z,0.00
2018-07-20T00:39:22.638Z,0.00
2018-07-20T00:40:22.657Z,0.00
2018-07-20T00:41:22.675Z,0.00
2018-07-20T00:42:22.700Z,0.00
2018-07-20T00:43:22.719Z,0.00
2018-07-20T00:44:22.740Z,0.00
2018-07-20T00:45:22.756Z,0.00
2018-07-20T00:46:22.790Z,0.00
2018-07-20T00:47:22.797Z,0.00
2018-07-20T00:48:22.825Z,0.00
2018-07-20T00:49:22.848Z,0.00
2018-07-20T00:50:22.867Z,0.00
2018-07-20T00:51:22.891Z,0.00
2018-07-20T00:52:22.900Z,0.00
2018-07-20T00:53:22.926Z,0.00
2018-07-20T00:54:22.951Z,0.00
2018-07-20T00:55:22.966Z,0.00
2018-07-20T00:56:23.041Z,0.00
2018-07-20T00:57:23.088Z,0.00
2018-07-20T00:58:23.096Z,0.00
2018-07-20T00:59:23.053Z,0.00
2018-07-20T01:00:23.079Z,0.00
2018-07-20T01:01:23.094Z,0.00
2018-07-20T01:02:23.115Z,0.00
2018-07-20T01:03:23.141Z,0.00
2018-07-20T01:04:23.154Z,0.00
2018-07-20T01:05:23.182Z,0.00
2018-07-20T01:06:23.200Z,0.00
2018-07-20T01:07:23.221Z,0.00
2018-07-20T01:08:23.240Z,0.00
2018-07-20T01:09:23.266Z,0.00
2018-07-20T01:10:23.333Z,0.00
2018-07-20T01:11:23.303Z,0.00
2018-07-20T01:12:23.326Z,0.00
2018-07-20T01:13:23.348Z,0.00
2018-07-20T01:14:23.377Z,0.00
2018-07-20T01:15:23.387Z,0.00
2018-07-20T01:16:23.411Z,0.00
2018-07-20T01:17:23.432Z,0.00
2018-07-20T01:18:23.452Z,0.00
2018-07-20T01:19:23.470Z,0.00
2018-07-20T01:20:23.492Z,0.00
2018-07-20T01:21:23.509Z,0.00
2018-07-20T01:22:23.531Z,0.00
2018-07-20T01:23:23.553Z,0.00
2018-07-20T01:24:23.572Z,0.00
2018-07-20T01:25:23.595Z,0.00
2018-07-20T01:26:23.616Z,0.00
2018-07-20T01:27:23.646Z,0.00
2018-07-20T01:28:23.656Z,0.00
2018-07-20T01:29:23.678Z,0.00
2018-07-20T01:30:23.701Z,0.00
2018-07-20T01:31:23.717Z,0.00
2018-07-20T01:32:23.752Z,0.00
2018-07-20T01:33:23.767Z,0.00
2018-07-20T01:34:23.781Z,0.00
2018-07-20T01:35:23.799Z,0.00
2018-07-20T01:36:23.824Z,0.00
2018-07-20T01:37:23.845Z,0.00
2018-07-20T01:38:23.866Z,0.00
2018-07-20T01:39:23.888Z,0.00
2018-07-20T01:40:23.936Z,0.00
2018-07-20T01:41:23.927Z,0.00
2018-07-20T01:42:23.951Z,0.00
2018-07-20T01:43:23.969Z,0.00
2018-07-20T01:44:23.991Z,0.00
2018-07-20T01:45:24.010Z,0.00
2018-07-20T01:46:24.029Z,0.00
2018-07-20T01:47:24.054Z,0.00
2018-07-20T01:48:24.075Z,0.00
2018-07-20T01:49:24.096Z,0.00
2018-07-20T01:50:24.114Z,0.00
2018-07-20T01:51:24.137Z,0.00
2018-07-20T01:52:24.159Z,0.00
2018-07-20T01:53:24.181Z,0.00
2018-07-20T01:54:24.199Z,0.00
2018-07-20T01:55:24.220Z,0.00
2018-07-20T01:56:24.240Z,0.00
2018-07-20T01:57:24.258Z,0.00
2018-07-20T01:58:24.288Z,0.00
2018-07-20T01:59:24.325Z,0.00
2018-07-20T02:00:24.323Z,0.00
2018-07-20T02:01:24.342Z,0.00
2018-07-20T02:02:24.369Z,0.00
2018-07-20T02:03:24.384Z,0.00
2018-07-20T02:04:24.412Z,0.00
2018-07-20T02:05:24.434Z,0.00
2018-07-20T02:06:24.450Z,0.00
2018-07-20T02:07:24.473Z,0.00
2018-07-20T02:08:24.489Z,0.00
2018-07-20T02:09:24.508Z,0.00
2018-07-20T02:10:24.535Z,0.00
2018-07-20T02:11:24.562Z,0.00
2018-07-20T02:12:24.579Z,0.00
2018-07-20T02:13:24.592Z,0.00
2018-07-20T02:14:24.618Z,0.00
2018-07-20T02:15:24.640Z,0.00
2018-07-20T02:16:24.656Z,0.00
2018-07-20T02:17:24.678Z,0.00
2018-07-20T02:18:24.698Z,0.00
2018-07-20T02:19:24.720Z,0.00
2018-07-20T02:20:24.746Z,0.00
2018-07-20T02:21:24.763Z,0.00
2018-07-20T02:22:24.786Z,0.00
2018-07-20T02:23:24.816Z,0.00
2018-07-20T02:24:24.829Z,0.00
2018-07-20T02:25:24.845Z,0.00
2018-07-20T02:26:24.866Z,0.00
2018-07-20T02:27:24.891Z,0.00
2018-07-20T02:28:24.910Z,0.00
2018-07-20T02:29:24.934Z,0.00
2018-07-20T02:30:24.948Z,0.00
2018-07-20T02:31:24.972Z,0.00
2018-07-20T02:32:24.983Z,0.00
2018-07-20T02:33:25.017Z,0.00
2018-07-20T02:34:25.050Z,0.00
2018-07-20T02:35:25.046Z,0.00
2018-07-20T02:36:25.076Z,0.00
2018-07-20T02:37:25.092Z,0.00
2018-07-20T02:38:25.117Z,0.00
2018-07-20T02:39:25.131Z,0.00
2018-07-20T02:40:25.159Z,0.00
2018-07-20T02:41:25.174Z,0.00
2018-07-20T02:42:25.201Z,0.00
2018-07-20T02:43:25.221Z,0.00
2018-07-20T02:44:25.242Z,0.00
2018-07-20T02:45:25.265Z,0.00
2018-07-20T02:46:25.280Z,0.00
2018-07-20T02:47:25.301Z,0.00
2018-07-20T02:48:25.325Z,0.00
2018-07-20T02:49:25.344Z,0.00
2018-07-20T02:50:25.380Z,0.00
2018-07-20T02:51:25.389Z,0.00
2018-07-20T02:52:25.435Z,0.00
2018-07-20T02:53:25.425Z,0.00
2018-07-20T02:54:25.439Z,0.00
2018-07-20T02:55:25.471Z,0.00
2018-07-20T02:56:25.487Z,0.00
2018-07-20T02:57:25.508Z,0.00
2018-07-20T02:58:25.564Z,0.00
2018-07-20T02:59:25.550Z,0.00
2018-07-20T03:00:25.601Z,0.00
2018-07-20T03:01:25.587Z,0.00
2018-07-20T03:02:25.610Z,0.00
2018-07-20T03:03:25.640Z,0.00
2018-07-20T03:04:25.654Z,0.00
2018-07-20T03:05:25.674Z,0.00
2018-07-20T03:06:25.695Z,0.00
2018-07-20T03:07:25.729Z,0.00
2018-07-20T03:08:25.747Z,0.00
2018-07-20T03:09:25.755Z,0.00
2018-07-20T03:10:25.777Z,0.00
2018-07-20T03:11:25.798Z,0.00
2018-07-20T03:12:25.824Z,0.00
2018-07-20T03:13:25.842Z,0.00
2018-07-20T03:14:25.871Z,0.00
2018-07-20T03:15:25.899Z,0.00
2018-07-20T03:16:25.901Z,0.00
2018-07-20T03:17:25.922Z,0.00
2018-07-20T03:18:25.944Z,0.00
2018-07-20T03:19:25.965Z,0.00
2018-07-20T03:20:25.990Z,0.00
2018-07-20T03:21:26.022Z,0.00
2018-07-20T03:22:26.025Z,0.00
2018-07-20T03:23:26.047Z,0.00
2018-07-20T03:24:26.069Z,0.00
2018-07-20T03:25:26.093Z,0.00
2018-07-20T03:26:26.108Z,0.00
2018-07-20T03:27:26.129Z,0.00
2018-07-20T03:28:26.151Z,0.00
2018-07-20T03:29:26.196Z,4.00
2018-07-20T03:30:26.209Z,4.00
2018-07-20T03:31:26.214Z,0.00
2018-07-20T03:32:26.232Z,0.00
2018-07-20T03:33:26.278Z,0.00
2018-07-20T03:34:26.285Z,0.00
2018-07-20T03:35:26.304Z,0.00
2018-07-20T03:36:26.316Z,0.00
2018-07-20T03:37:26.361Z,4.00
2018-07-20T03:38:26.361Z,4.00
2018-07-20T03:39:26.377Z,4.00
2018-07-20T03:40:26.400Z,4.00
2018-07-20T03:41:26.422Z,0.00
2018-07-20T03:42:26.440Z,0.00
2018-07-20T03:43:26.457Z,0.00
2018-07-20T03:44:26.480Z,0.00
2018-07-20T03:45:26.514Z,4.00
2018-07-20T03:46:26.522Z,4.00
2018-07-20T03:47:26.541Z,4.00
2018-07-20T03:48:26.577Z,4.00
2018-07-20T03:49:26.583Z,4.00
2018-07-20T03:50:26.606Z,4.00
2018-07-20T03:51:26.627Z,4.00
2018-07-20T03:52:26.648Z,4.00
2018-07-20T03:53:26.669Z,4.00
2018-07-20T03:54:26.689Z,4.00
2018-07-20T03:55:26.708Z,4.00
2018-07-20T03:56:26.720Z,4.00
2018-07-20T03:57:26.757Z,4.00
2018-07-20T03:58:26.771Z,4.00
2018-07-20T03:59:26.804Z,0.00
2018-07-20T04:00:26.812Z,0.00
2018-07-20T04:01:26.835Z,0.00
2018-07-20T04:02:26.882Z,0.00
2018-07-20T04:03:26.905Z,0.00
2018-07-20T04:04:26.904Z,0.00
2018-07-20T04:05:26.916Z,0.00
2018-07-20T04:06:26.935Z,0.00
2018-07-20T04:07:26.956Z,0.00
2018-07-20T04:08:26.991Z,0.00
2018-07-20T04:09:26.996Z,0.00
2018-07-20T04:10:27.018Z,0.00
2018-07-20T04:11:27.045Z,0.00
2018-07-20T04:12:27.060Z,0.00
2018-07-20T04:13:27.083Z,0.00
2018-07-20T04:14:27.112Z,0.00
2018-07-20T04:15:27.141Z,0.00
2018-07-20T04:16:27.155Z,0.00
2018-07-20T04:17:27.162Z,0.00
2018-07-20T04:18:27.217Z,0.00
2018-07-20T04:19:27.205Z,0.00
2018-07-20T04:20:27.232Z,0.00
2018-07-20T04:21:27.249Z,0.00
2018-07-20T04:22:27.270Z,0.00
2018-07-20T04:23:27.291Z,0.00
2018-07-20T04:24:27.318Z,0.00
2018-07-20T04:25:27.325Z,0.00
2018-07-20T04:26:27.351Z,0.00
2018-07-20T04:27:27.371Z,0.00
2018-07-20T04:28:27.392Z,0.00
2018-07-20T04:29:27.414Z,0.00
2018-07-20T04:30:27.432Z,0.00
2018-07-20T04:31:27.457Z,0.00
2018-07-20T04:32:27.474Z,0.00
2018-07-20T04:33:27.539Z,0.00
2018-07-20T04:34:27.546Z,0.00
2018-07-20T04:35:27.538Z,0.00
2018-07-20T04:36:27.570Z,0.00
2018-07-20T04:37:27.582Z,0.00
2018-07-20T04:38:27.599Z,0.00
2018-07-20T04:39:27.620Z,0.00
2018-07-20T04:40:27.639Z,0.00
2018-07-20T04:41:27.669Z,0.00
2018-07-20T04:42:27.682Z,0.00
2018-07-20T04:43:27.706Z,0.00
2018-07-20T04:44:27.723Z,0.00
2018-07-20T04:45:27.738Z,0.00
2018-07-20T04:46:27.763Z,0.00
2018-07-20T04:47:27.789Z,0.00
2018-07-20T04:48:27.806Z,0.00
2018-07-20T04:49:27.827Z,0.00
2018-07-20T04:50:27.852Z,0.00
2018-07-20T04:51:27.871Z,0.00
2018-07-20T04:52:27.921Z,0.00
2018-07-20T04:53:27.910Z,0.00
2018-07-20T04:54:27.932Z,0.00
2018-07-20T04:55:27.951Z,0.00
2018-07-20T04:56:27.971Z,0.00
2018-07-20T04:57:27.995Z,0.00
2018-07-20T04:58:28.015Z,0.00
2018-07-20T04:59:28.034Z,0.00
2018-07-20T05:00:28.054Z,0.00
2018-07-20T05:01:28.074Z,0.00
2018-07-20T05:02:28.097Z,0.00
2018-07-20T05:03:28.162Z,0.00
2018-07-20T05:04:28.137Z,0.00
2018-07-20T05:05:28.159Z,0.00
2018-07-20T05:06:28.179Z,0.00
2018-07-20T05:07:28.200Z,0.00
2018-07-20T05:08:28.234Z,0.00
2018-07-20T05:09:28.243Z,0.00
2018-07-20T05:10:28.263Z,0.00
2018-07-20T05:11:28.322Z,0.00
2018-07-20T05:12:28.306Z,0.00
2018-07-20T05:13:28.324Z,0.00
2018-07-20T05:14:28.349Z,0.00
2018-07-20T05:15:28.371Z,0.00
2018-07-20T05:16:28.387Z,0.00
2018-07-20T05:17:28.407Z,0.00
2018-07-20T05:18:28.426Z,0.00
2018-07-20T05:19:28.450Z,0.00
2018-07-20T05:20:28.470Z,0.00
2018-07-20T05:21:28.489Z,0.00
2018-07-20T05:22:28.513Z,0.00
2018-07-20T05:23:28.533Z,0.00
2018-07-20T05:24:28.558Z,0.00
2018-07-20T05:25:28.578Z,0.00
2018-07-20T05:26:28.596Z,0.00
2018-07-20T05:27:28.618Z,0.00
2018-07-20T05:28:28.640Z,0.00
2018-07-20T05:29:28.657Z,0.00
2018-07-20T05:30:28.681Z,0.00
2018-07-20T05:31:28.698Z,0.00
2018-07-20T05:32:28.739Z,0.00
2018-07-20T05:33:28.743Z,0.00
2018-07-20T05:34:28.762Z,0.00
2018-07-20T05:35:28.788Z,0.00
2018-07-20T05:36:28.803Z,0.00
2018-07-20T05:37:28.823Z,0.00
2018-07-20T05:38:28.842Z,0.00
2018-07-20T05:39:28.866Z,0.00
2018-07-20T05:40:28.886Z,0.00
2018-07-20T05:41:28.910Z,0.00
2018-07-20T05:42:28.929Z,0.00
2018-07-20T05:43:28.949Z,0.00
2018-07-20T05:44:28.974Z,0.00
2018-07-20T05:45:28.988Z,0.00
2018-07-20T05:46:29.014Z,0.00
2018-07-20T05:47:29.079Z,0.00
2018-07-20T05:48:29.055Z,0.00
2018-07-20T05:49:29.074Z,0.00
2018-07-20T05:50:29.098Z,0.00
2018-07-20T05:51:29.116Z,0.00
2018-07-20T05:52:29.141Z,0.00
2018-07-20T05:53:29.250Z,0.00
2018-07-20T05:54:29.178Z,0.00
2018-07-20T05:55:29.199Z,0.00
2018-07-20T05:56:29.212Z,0.00
2018-07-20T05:57:29.253Z,0.00
2018-07-20T05:58:29.265Z,0.00
2018-07-20T05:59:29.284Z,0.00
2018-07-20T06:00:29.303Z,0.00
2018-07-20T06:01:29.321Z,0.00
2018-07-20T06:02:29.341Z,0.00
2018-07-20T06:03:29.365Z,0.00
2018-07-20T06:04:29.384Z,0.00
2018-07-20T06:05:29.431Z,0.00
2018-07-20T06:06:29.424Z,0.00
2018-07-20T06:07:29.448Z,0.00
2018-07-20T06:08:29.477Z,0.00
2018-07-20T06:09:29.499Z,0.00
2018-07-20T06:10:29.508Z,0.00
2018-07-20T06:11:29.595Z,0.00
2018-07-20T06:12:29.555Z,0.00
2018-07-20T06:13:29.575Z,0.00
2018-07-20T06:14:29.640Z,0.00
2018-07-20T06:15:29.614Z,0.00
2018-07-20T06:16:29.638Z,0.00
2018-07-20T06:17:29.654Z,0.00
2018-07-20T06:18:29.695Z,0.00
2018-07-20T06:19:29.702Z,0.00
2018-07-20T06:20:29.718Z,0.00
2018-07-20T06:21:29.765Z,0.00
2018-07-20T06:22:29.753Z,0.00
2018-07-20T06:23:29.835Z,0.00
2018-07-20T06:24:29.794Z,0.00
2018-07-20T06:25:29.826Z,0.00
2018-07-20T06:26:29.845Z,0.00
2018-07-20T06:27:29.865Z,0.00
2018-07-20T06:28:29.886Z,0.00
2018-07-20T06:29:29.921Z,0.00
2018-07-20T06:30:29.926Z,0.00
2018-07-20T06:31:29.950Z,0.00
2018-07-20T06:32:29.972Z,0.00
2018-07-20T06:33:29.987Z,0.00
2018-07-20T06:34:30.019Z,0.00
2018-07-20T06:35:30.040Z,0.00
2018-07-20T06:36:30.052Z,0.00
2018-07-20T06:37:30.081Z,0.00
2018-07-20T06:38:30.095Z,0.00
2018-07-20T06:39:30.110Z,0.00
2018-07-20T06:40:30.130Z,0.00
2018-07-20T06:41:30.187Z,0.00
2018-07-20T06:42:30.179Z,0.00
2018-07-20T06:43:30.198Z,0.00
2018-07-20T06:44:30.219Z,0.00
2018-07-20T06:45:30.239Z,0.00
2018-07-20T06:46:30.294Z,0.00
2018-07-20T06:47:30.280Z,0.00
2018-07-20T06:48:30.305Z,0.00
2018-07-20T06:49:30.322Z,0.00
2018-07-20T06:50:30.373Z,0.00
2018-07-20T06:51:30.364Z,0.00
2018-07-20T06:52:30.389Z,0.00
2018-07-20T06:53:30.408Z,8.00
2018-07-20T06:54:30.428Z,4.00
2018-07-20T06:55:30.451Z,8.00
2018-07-20T06:56:30.472Z,8.00
2018-07-20T06:57:30.498Z,8.00
2018-07-20T06:58:30.510Z,8.00
2018-07-20T06:59:30.532Z,8.00
2018-07-20T07:00:30.553Z,8.00
2018-07-20T07:01:30.578Z,12.00
2018-07-20T07:02:30.593Z,8.00
2018-07-20T07:03:30.625Z,12.00
2018-07-20T07:04:30.632Z,8.00
2018-07-20T07:05:30.656Z,8.00
2018-07-20T07:06:30.690Z,8.00
2018-07-20T07:07:30.699Z,8.00
2018-07-20T07:08:30.721Z,8.00
2018-07-20T07:09:30.845Z,8.00
2018-07-20T07:10:30.772Z,8.00
2018-07-20T07:11:30.785Z,8.00
2018-07-20T07:12:30.796Z,8.00
2018-07-20T07:13:30.818Z,8.00
2018-07-20T07:14:30.860Z,8.00
2018-07-20T07:15:30.882Z,8.00
2018-07-20T07:16:30.885Z,8.00
2018-07-20T07:17:30.913Z,8.00
2018-07-20T07:18:30.925Z,8.00
2018-07-20T07:19:30.951Z,8.00
2018-07-20T07:20:30.972Z,8.00
2018-07-20T07:21:31.006Z,364.00
2018-07-20T07:22:31.013Z,472.00
2018-07-20T07:23:31.038Z,480.00
2018-07-20T07:24:31.059Z,496.00
2018-07-20T07:25:31.078Z,496.00
2018-07-20T07:26:31.097Z,504.00
2018-07-20T07:27:31.124Z,516.00
2018-07-20T07:28:31.140Z,508.00
2018-07-20T07:29:31.162Z,516.00
2018-07-20T07:30:31.189Z,508.00
2018-07-20T07:31:31.197Z,496.00
2018-07-20T07:32:31.224Z,488.00
2018-07-20T07:33:31.239Z,476.00
2018-07-20T07:34:31.273Z,456.00
2018-07-20T07:35:31.293Z,444.00
2018-07-20T07:36:31.305Z,440.00
2018-07-20T07:37:31.323Z,436.00
2018-07-20T07:38:31.345Z,444.00
2018-07-20T07:39:31.375Z,448.00
2018-07-20T07:40:31.389Z,444.00
2018-07-20T07:41:31.416Z,448.00
2018-07-20T07:42:31.427Z,452.00
2018-07-20T07:43:31.449Z,456.00
2018-07-20T07:44:31.471Z,456.00
2018-07-20T07:45:31.512Z,456.00
2018-07-20T07:46:31.517Z,456.00
2018-07-20T07:47:31.540Z,460.00
2018-07-20T07:48:31.557Z,460.00
2018-07-20T07:49:31.627Z,456.00
2018-07-20T07:50:31.607Z,456.00
2018-07-20T07:51:31.618Z,452.00
2018-07-20T07:52:31.632Z,444.00
2018-07-20T07:53:31.648Z,448.00
2018-07-20T07:54:31.680Z,452.00
2018-07-20T07:55:31.701Z,460.00
2018-07-20T07:56:31.711Z,468.00
2018-07-20T07:57:31.766Z,472.00
2018-07-20T07:58:31.754Z,468.00
2018-07-20T07:59:31.776Z,464.00
2018-07-20T08:00:31.799Z,464.00
2018-07-20T08:01:31.815Z,460.00
2018-07-20T08:02:31.834Z,464.00
2018-07-20T08:03:31.909Z,468.00
2018-07-20T08:04:31.932Z,468.00
2018-07-20T08:05:31.901Z,476.00
2018-07-20T08:06:31.944Z,480.00
2018-07-20T08:07:31.935Z,492.00
2018-07-20T08:08:31.964Z,496.00
2018-07-20T08:09:31.983Z,500.00
2018-07-20T08:10:32.004Z,504.00
2018-07-20T08:11:32.014Z,504.00
2018-07-20T08:12:32.042Z,504.00
2018-07-20T08:13:32.066Z,492.00
2018-07-20T08:14:32.077Z,488.00
2018-07-20T08:15:32.098Z,480.00
2018-07-20T08:16:32.120Z,476.00
2018-07-20T08:17:32.141Z,468.00
2018-07-20T08:18:32.160Z,456.00
2018-07-20T08:19:32.182Z,452.00
2018-07-20T08:20:32.198Z,296.00
2018-07-20T08:21:32.217Z,0.00
2018-07-20T08:22:32.239Z,0.00
2018-07-20T08:23:32.256Z,0.00
2018-07-20T08:24:32.281Z,0.00
2018-07-20T08:25:32.301Z,0.00
2018-07-20T08:26:32.320Z,0.00
2018-07-20T08:27:32.341Z,0.00
2018-07-20T08:28:32.361Z,0.00
2018-07-20T08:29:32.462Z,0.00
2018-07-20T08:30:32.399Z,0.00
2018-07-20T08:31:32.423Z,0.00
2018-07-20T08:32:32.437Z,0.00
2018-07-20T08:33:32.459Z,0.00
2018-07-20T08:34:32.479Z,0.00
2018-07-20T08:35:32.502Z,0.00
2018-07-20T08:36:32.522Z,0.00
2018-07-20T08:37:32.540Z,0.00
2018-07-20T08:38:32.561Z,0.00
2018-07-20T08:39:32.582Z,0.00
2018-07-20T08:40:32.598Z,0.00
2018-07-20T08:41:32.630Z,0.00
2018-07-20T08:42:32.644Z,0.00
2018-07-20T08:43:32.662Z,0.00
2018-07-20T08:44:32.686Z,0.00
2018-07-20T08:45:32.702Z,0.00
2018-07-20T08:46:32.772Z,0.00
2018-07-20T08:47:32.751Z,0.00
2018-07-20T08:48:32.766Z,0.00
2018-07-20T08:49:32.784Z,0.00
2018-07-20T08:50:32.816Z,0.00
2018-07-20T08:51:32.832Z,0.00
2018-07-20T08:52:32.847Z,0.00
2018-07-20T08:53:32.865Z,0.00
2018-07-20T08:54:32.888Z,0.00
2018-07-20T08:55:32.909Z,0.00
2018-07-20T08:56:32.925Z,0.00
2018-07-20T08:57:32.948Z,0.00
2018-07-20T08:58:32.970Z,0.00
2018-07-20T08:59:32.985Z,0.00
2018-07-20T09:00:33.013Z,0.00
2018-07-20T09:01:33.028Z,0.00
2018-07-20T09:02:33.049Z,0.00
2018-07-20T09:03:33.079Z,0.00
2018-07-20T09:04:33.091Z,0.00
2018-07-20T09:05:33.111Z,0.00
2018-07-20T09:06:33.140Z,0.00
2018-07-20T09:07:33.151Z,0.00
2018-07-20T09:08:33.174Z,0.00
2018-07-20T09:09:33.194Z,0.00
2018-07-20T09:10:33.219Z,0.00
2018-07-20T09:11:33.233Z,0.00
2018-07-20T09:12:33.252Z,0.00
2018-07-20T09:13:33.341Z,0.00
2018-07-20T09:14:33.300Z,0.00
2018-07-20T09:15:33.318Z,0.00
2018-07-20T09:16:33.339Z,0.00
2018-07-20T09:17:33.386Z,0.00
2018-07-20T09:18:33.388Z,0.00
2018-07-20T09:19:33.398Z,0.00
2018-07-20T09:20:33.457Z,0.00
2018-07-20T09:21:33.441Z,0.00
2018-07-20T09:22:33.461Z,0.00
2018-07-20T09:23:33.486Z,0.00
2018-07-20T09:24:33.503Z,0.00
2018-07-20T09:25:33.523Z,0.00
2018-07-20T09:26:33.559Z,0.00
2018-07-20T09:27:33.567Z,0.00
2018-07-20T09:28:33.589Z,0.00
2018-07-20T09:29:33.605Z,0.00
2018-07-20T09:30:33.625Z,0.00
2018-07-20T09:31:33.646Z,0.00
2018-07-20T09:32:33.667Z,0.00
2018-07-20T09:33:33.687Z,0.00
2018-07-20T09:34:33.706Z,0.00
2018-07-20T09:35:33.728Z,0.00
2018-07-20T09:36:33.750Z,0.00
2018-07-20T09:37:33.771Z,0.00
2018-07-20T09:38:33.799Z,0.00
2018-07-20T09:39:33.813Z,0.00
2018-07-20T09:40:33.832Z,0.00
2018-07-20T09:41:33.855Z,0.00
2018-07-20T09:42:33.872Z,0.00
2018-07-20T09:43:33.893Z,0.00
2018-07-20T09:44:33.915Z,0.00
2018-07-20T09:45:33.935Z,0.00
2018-07-20T09:46:33.957Z,0.00
2018-07-20T09:47:33.978Z,0.00
2018-07-20T09:48:33.999Z,0.00
2018-07-20T09:49:34.018Z,0.00
2018-07-20T09:50:34.041Z,0.00
2018-07-20T09:51:34.057Z,0.00
2018-07-20T09:52:34.087Z,0.00
2018-07-20T09:53:34.102Z,0.00
2018-07-20T09:54:34.121Z,0.00
2018-07-20T09:55:34.141Z,0.00
2018-07-20T09:56:34.162Z,0.00
2018-07-20T09:57:34.183Z,0.00
2018-07-20T09:58:34.237Z,0.00
2018-07-20T09:59:34.278Z,0.00
2018-07-20T10:00:34.248Z,0.00
2018-07-20T10:01:34.265Z,0.00
2018-07-20T10:02:34.287Z,0.00
2018-07-20T10:03:34.307Z,0.00
2018-07-20T10:04:34.327Z,0.00
2018-07-20T10:05:34.348Z,0.00
2018-07-20T10:06:34.370Z,0.00
2018-07-20T10:07:34.388Z,0.00
2018-07-20T10:08:34.410Z,0.00
2018-07-20T10:09:34.431Z,0.00
2018-07-20T10:10:34.451Z,0.00
2018-07-20T10:11:34.525Z,0.00
2018-07-20T10:12:34.540Z,0.00
2018-07-20T10:13:34.518Z,0.00
2018-07-20T10:14:34.528Z,0.00
2018-07-20T10:15:34.555Z,0.00
2018-07-20T10:16:34.577Z,0.00
2018-07-20T10:17:34.597Z,0.00
2018-07-20T10:18:34.620Z,0.00
2018-07-20T10:19:34.638Z,0.00
2018-07-20T10:20:34.674Z,0.00
2018-07-20T10:21:34.680Z,0.00
2018-07-20T10:22:34.699Z,0.00
2018-07-20T10:23:34.721Z,0.00
2018-07-20T10:24:34.751Z,0.00
2018-07-20T10:25:34.817Z,0.00
2018-07-20T10:26:34.786Z,0.00
2018-07-20T10:27:34.812Z,0.00
2018-07-20T10:28:34.840Z,0.00
2018-07-20T10:29:34.871Z,0.00
2018-07-20T10:30:34.906Z,0.00
2018-07-20T10:31:34.890Z,0.00
2018-07-20T10:32:34.907Z,0.00
2018-07-20T10:33:34.928Z,0.00
2018-07-20T10:34:34.956Z,0.00
2018-07-20T10:35:35.021Z,0.00
2018-07-20T10:36:35.011Z,0.00
2018-07-20T10:37:35.011Z,0.00
2018-07-20T10:38:35.032Z,0.00
2018-07-20T10:39:35.054Z,0.00
2018-07-20T10:40:35.073Z,0.00
2018-07-20T10:41:35.095Z,0.00
2018-07-20T10:42:35.113Z,0.00
2018-07-20T10:43:35.137Z,0.00
2018-07-20T10:44:35.156Z,0.00
2018-07-20T10:45:35.178Z,0.00
2018-07-20T10:46:35.200Z,0.00
2018-07-20T10:47:35.219Z,0.00
2018-07-20T10:48:35.239Z,0.00
2018-07-20T10:49:35.258Z,0.00
2018-07-20T10:50:35.280Z,0.00
2018-07-20T10:51:35.300Z,0.00
2018-07-20T10:52:35.323Z,0.00
2018-07-20T10:53:35.344Z,0.00
2018-07-20T10:54:35.365Z,0.00
2018-07-20T10:55:35.386Z,0.00
2018-07-20T10:56:35.406Z,0.00
2018-07-20T10:57:35.424Z,0.00
2018-07-20T10:58:35.454Z,0.00
2018-07-20T10:59:35.466Z,0.00
2018-07-20T11:00:35.489Z,0.00
2018-07-20T11:01:35.565Z,0.00
2018-07-20T11:02:35.531Z,0.00
2018-07-20T11:03:35.553Z,0.00
2018-07-20T11:04:35.572Z,0.00
2018-07-20T11:05:35.591Z,0.00
2018-07-20T11:06:35.610Z,0.00
2018-07-20T11:07:35.634Z,0.00
2018-07-20T11:08:35.657Z,0.00
2018-07-20T11:09:35.677Z,0.00
2018-07-20T11:10:35.695Z,0.00
2018-07-20T11:11:35.726Z,0.00
2018-07-20T11:12:35.739Z,0.00
2018-07-20T11:13:35.760Z,0.00
2018-07-20T11:14:35.781Z,0.00
2018-07-20T11:15:35.803Z,0.00
2018-07-20T11:16:35.822Z,0.00
2018-07-20T11:17:35.841Z,0.00
2018-07-20T11:18:35.861Z,0.00
2018-07-20T11:19:35.883Z,0.00
2018-07-20T11:20:35.905Z,0.00
2018-07-20T11:21:35.925Z,0.00
2018-07-20T11:22:35.944Z,0.00
2018-07-20T11:23:35.968Z,0.00
2018-07-20T11:24:35.985Z,0.00
2018-07-20T11:25:36.009Z,0.00
2018-07-20T11:26:36.033Z,0.00
2018-07-20T11:27:36.075Z,0.00
2018-07-20T11:28:36.070Z,0.00
2018-07-20T11:29:36.089Z,0.00
2018-07-20T11:30:36.110Z,0.00
2018-07-20T11:31:36.131Z,0.00
2018-07-20T11:32:36.154Z,0.00
2018-07-20T11:33:36.245Z,0.00
2018-07-20T11:34:36.198Z,0.00
2018-07-20T11:35:36.218Z,0.00
2018-07-20T11:36:36.246Z,0.00
2018-07-20T11:37:36.257Z,0.00
2018-07-20T11:38:36.278Z,0.00
2018-07-20T11:39:36.300Z,0.00
2018-07-20T11:40:36.319Z,0.00
2018-07-20T11:41:36.338Z,0.00
2018-07-20T11:42:36.363Z,0.00
2018-07-20T11:43:36.376Z,0.00
2018-07-20T11:44:36.405Z,0.00
2018-07-20T11:45:36.421Z,0.00
2018-07-20T11:46:36.444Z,0.00
2018-07-20T11:47:36.464Z,0.00
2018-07-20T11:48:36.489Z,0.00
2018-07-20T11:49:36.509Z,0.00
2018-07-20T11:50:36.529Z,0.00
2018-07-20T11:51:36.548Z,0.00
2018-07-20T11:52:36.572Z,0.00
2018-07-20T11:53:36.588Z,0.00
2018-07-20T11:54:36.607Z,0.00
2018-07-20T11:55:36.637Z,0.00
2018-07-20T11:56:36.652Z,0.00
2018-07-20T11:57:36.674Z,0.00
2018-07-20T11:58:36.692Z,0.00
2018-07-20T11:59:36.713Z,0.00
2018-07-20T12:00:36.738Z,0.00
2018-07-20T12:01:36.754Z,0.00
2018-07-20T12:02:36.775Z,0.00
2018-07-20T12:03:36.796Z,0.00
2018-07-20T12:04:36.826Z,0.00
2018-07-20T12:05:36.839Z,0.00
2018-07-20T12:06:36.861Z,0.00
2018-07-20T12:07:36.888Z,0.00
2018-07-20T12:08:36.902Z,0.00
2018-07-20T12:09:36.922Z,0.00
2018-07-20T12:10:36.935Z,0.00
2018-07-20T12:11:36.972Z,0.00
2018-07-20T12:12:36.992Z,0.00
2018-07-20T12:13:37.003Z,0.00
2018-07-20T12:14:37.045Z,0.00
2018-07-20T12:15:37.054Z,0.00
2018-07-20T12:16:37.079Z,0.00
2018-07-20T12:17:37.089Z,0.00
2018-07-20T12:18:37.118Z,0.00
2018-07-20T12:19:37.130Z,0.00
2018-07-20T12:20:37.152Z,0.00
2018-07-20T12:21:37.171Z,0.00
2018-07-20T12:22:37.205Z,0.00
2018-07-20T12:23:37.212Z,0.00
2018-07-20T12:24:37.230Z,0.00
2018-07-20T12:25:37.246Z,0.00
2018-07-20T12:26:37.275Z,0.00
2018-07-20T12:27:37.299Z,0.00
2018-07-20T12:28:37.365Z,0.00
2018-07-20T12:29:37.337Z,0.00
2018-07-20T12:30:37.402Z,0.00
2018-07-20T12:31:37.382Z,0.00
2018-07-20T12:32:37.400Z,0.00
2018-07-20T12:33:37.423Z,0.00
2018-07-20T12:34:37.452Z,0.00
2018-07-20T12:35:37.462Z,0.00
2018-07-20T12:36:37.486Z,0.00
2018-07-20T12:37:37.503Z,0.00
2018-07-20T12:38:37.524Z,0.00
2018-07-20T12:39:37.544Z,0.00
2018-07-20T12:40:37.563Z,0.00
2018-07-20T12:41:37.588Z,0.00
2018-07-20T12:42:37.633Z,0.00
2018-07-20T12:43:37.630Z,0.00
2018-07-20T12:44:37.650Z,0.00
2018-07-20T12:45:37.677Z,0.00
2018-07-20T12:46:37.766Z,0.00
2018-07-20T12:47:37.714Z,0.00
2018-07-20T12:48:37.734Z,0.00
2018-07-20T12:49:37.756Z,0.00
2018-07-20T12:50:37.778Z,0.00
2018-07-20T12:51:37.798Z,0.00
2018-07-20T12:52:37.827Z,0.00
2018-07-20T12:53:37.895Z,0.00
2018-07-20T12:54:37.859Z,0.00
2018-07-20T12:55:37.884Z,0.00
2018-07-20T12:56:37.903Z,0.00
2018-07-20T12:57:37.922Z,0.00
2018-07-20T12:58:38.008Z,0.00
2018-07-20T12:59:37.965Z,0.00
2018-07-20T13:00:37.990Z,0.00
2018-07-20T13:01:38.008Z,0.00
2018-07-20T13:02:38.025Z,0.00
2018-07-20T13:03:38.047Z,0.00
2018-07-20T13:04:38.073Z,0.00
2018-07-20T13:05:38.095Z,0.00
2018-07-20T13:06:38.109Z,0.00
2018-07-20T13:07:38.134Z,0.00
2018-07-20T13:08:38.153Z,0.00
2018-07-20T13:09:38.174Z,0.00
2018-07-20T13:10:38.192Z,0.00
2018-07-20T13:11:38.212Z,0.00
2018-07-20T13:12:38.241Z,0.00
2018-07-20T13:13:38.253Z,0.00
2018-07-20T13:14:38.275Z,0.00